Time;durP1;ratioP1;P1;durP2;ratioP2;P2;SDS_P1;SDS_P2;PMS_P1;PMS_P2;Temp;Humidity;BMP_temperature;BMP_pressure;BME280_temperature;BME280_humidity;BME280_pressure;Samples;Min_cycle;Max_cycle;Signal;HPM_P1;HPM_P2
2022/03/02 00:01:53;;;;;;;43.17;27.55;;;5.30;99.90;;;;;;5078310;28;20043;-86
2022/03/02 00:04:19;;;;;;;43.85;26.77;;;5.30;99.90;;;;;;5066795;28;20040;-86
2022/03/02 00:06:45;;;;;;;42.17;27.00;;;5.30;99.90;;;;;;5058105;28;20561;-86
2022/03/02 00:09:11;;;;;;;42.15;27.58;;;5.30;99.90;;;;;;5058387;28;20096;-86
2022/03/02 00:11:37;;;;;;;46.08;28.50;;;5.20;99.90;;;;;;5074889;28;20445;-86
2022/03/02 00:14:05;;;;;;;41.67;26.70;;;5.30;99.90;;;;;;5058186;28;20047;-86
2022/03/02 00:16:34;;;;;;;42.97;27.85;;;5.30;99.90;;;;;;5057530;28;20059;-87
2022/03/02 00:19:01;;;;;;;45.10;27.75;;;5.30;99.90;;;;;;5074486;28;20048;-87
2022/03/02 00:21:27;;;;;;;40.40;26.20;;;5.30;99.90;;;;;;5057653;28;20048;-87
2022/03/02 00:23:53;;;;;;;45.20;28.27;;;5.20;99.90;;;;;;5057773;28;20545;-87
2022/03/02 00:26:19;;;;;;;43.33;28.05;;;5.20;99.90;;;;;;5074218;28;20189;-86
2022/03/02 00:28:45;;;;;;;45.97;29.30;;;5.20;99.90;;;;;;5073997;28;20060;-86
2022/03/02 00:31:11;;;;;;;47.47;29.00;;;5.20;99.90;;;;;;5057455;28;20052;-86
2022/03/02 00:33:37;;;;;;;43.13;26.58;;;5.20;99.90;;;;;;5074100;28;20051;-86
2022/03/02 00:36:04;;;;;;;45.22;28.55;;;5.20;99.90;;;;;;5057565;28;20460;-86
2022/03/02 00:38:30;;;;;;;46.03;30.27;;;5.20;99.90;;;;;;5073428;28;20044;-86
2022/03/02 00:40:56;;;;;;;43.13;27.73;;;5.20;99.90;;;;;;5057620;28;20393;-86
2022/03/02 00:43:22;;;;;;;44.55;28.75;;;5.20;99.90;;;;;;5073891;28;20043;-86
2022/03/02 00:45:48;;;;;;;45.47;29.73;;;5.20;99.90;;;;;;5057062;28;20486;-86
2022/03/02 00:48:14;;;;;;;44.15;28.88;;;5.20;99.90;;;;;;5057196;28;20040;-86
2022/03/02 00:50:40;;;;;;;45.08;29.70;;;5.20;99.90;;;;;;5074421;28;20122;-86
2022/03/02 00:53:07;;;;;;;41.85;28.35;;;5.20;99.90;;;;;;5074137;28;20502;-86
2022/03/02 00:55:34;;;;;;;48.15;29.88;;;5.20;99.90;;;;;;5057227;28;20036;-86
2022/03/02 00:58:06;;;;;;;45.40;30.05;;;5.20;99.90;;;;;;5058394;28;20093;-86
2022/03/02 01:00:32;;;;;;;47.58;29.90;;;5.20;99.90;;;;;;5073581;28;20032;-87
2022/03/02 01:02:57;;;;;;;48.17;31.40;;;5.20;99.90;;;;;;5073933;28;20050;-86
2022/03/02 01:05:23;;;;;;;50.85;32.67;;;5.10;99.90;;;;;;5077405;28;20043;-86
2022/03/02 01:07:49;;;;;;;47.25;29.80;;;5.10;99.90;;;;;;5076828;28;20043;-87
2022/03/02 01:10:16;;;;;;;47.90;30.55;;;5.10;99.90;;;;;;5076761;28;20137;-86
2022/03/02 01:12:42;;;;;;;49.90;30.90;;;5.10;99.90;;;;;;5094070;28;20039;-86
2022/03/02 01:15:09;;;;;;;47.35;29.77;;;5.10;99.90;;;;;;5077397;28;20044;-86
2022/03/02 01:17:35;;;;;;;50.75;31.60;;;5.10;99.90;;;;;;5076482;28;20047;-86
2022/03/02 01:20:03;;;;;;;50.58;32.63;;;5.10;99.90;;;;;;5076992;28;20039;-87
2022/03/02 01:22:29;;;;;;;49.42;31.05;;;5.10;99.90;;;;;;5093668;28;20040;-86
2022/03/02 01:24:55;;;;;;;50.70;33.20;;;5.00;99.90;;;;;;5076398;28;20394;-86
2022/03/02 01:27:21;;;;;;;53.53;31.00;;;5.00;99.90;;;;;;5077039;28;20054;-86
2022/03/02 01:29:47;;;;;;;51.78;31.50;;;5.10;99.90;;;;;;5076412;28;20127;-87
2022/03/02 01:32:13;;;;;;;48.10;31.50;;;5.10;99.90;;;;;;5093335;28;20169;-87
2022/03/02 01:34:39;;;;;;;47.25;30.88;;;5.00;99.90;;;;;;5076953;28;20664;-86
2022/03/02 01:37:05;;;;;;;51.70;33.28;;;5.00;99.90;;;;;;5076584;28;20044;-87
2022/03/02 01:39:31;;;;;;;52.42;32.38;;;5.00;99.90;;;;;;5075791;28;20544;-87
2022/03/02 01:41:57;;;;;;;54.53;33.42;;;5.00;99.90;;;;;;5093424;28;20123;-87
2022/03/02 01:44:24;;;;;;;55.05;33.75;;;5.00;99.90;;;;;;5076370;28;20490;-87
2022/03/02 01:46:50;;;;;;;54.35;33.72;;;5.00;99.90;;;;;;5076492;28;20401;-87
2022/03/02 01:49:15;;;;;;;53.35;34.15;;;4.90;99.90;;;;;;5093639;28;20130;-86
2022/03/02 01:51:41;;;;;;;52.97;34.13;;;4.90;99.90;;;;;;5075978;28;20047;-86
2022/03/02 01:54:07;;;;;;;54.70;33.28;;;4.90;99.90;;;;;;5093596;28;20533;-87
2022/03/02 01:56:34;;;;;;;55.60;34.15;;;4.90;99.90;;;;;;5076703;28;20789;-86
2022/03/02 01:59:02;;;;;;;54.90;32.78;;;4.90;99.90;;;;;;5093246;28;20043;-87
2022/03/02 02:01:28;;;;;;;54.08;32.17;;;4.90;99.90;;;;;;5093490;28;20046;-86
2022/03/02 02:03:53;;;;;;;57.08;33.35;;;4.80;99.90;;;;;;5092584;28;20040;-87
2022/03/02 02:06:19;;;;;;;52.35;33.17;;;4.80;99.90;;;;;;5092609;28;20058;-86
2022/03/02 02:08:45;;;;;;;55.85;33.63;;;4.80;99.90;;;;;;5092475;28;20043;-86
2022/03/02 02:11:12;;;;;;;51.10;31.75;;;4.80;99.90;;;;;;5075904;28;20541;-86
2022/03/02 02:13:39;;;;;;;52.55;32.83;;;4.70;99.90;;;;;;5092803;28;20074;-86
2022/03/02 02:16:05;;;;;;;;;;;4.70;99.90;;;;;;5075692;28;20031;-86
2022/03/02 02:18:31;;;;;;;;;;;4.70;99.90;;;;;;5076137;28;20302;-86
2022/03/02 02:21:03;;;;;;;;;;;4.60;99.90;;;;;;5093245;28;20006;-86
2022/03/02 02:23:29;;;;;;;;;;;4.50;99.90;;;;;;5076351;28;19919;-86
2022/03/02 02:25:55;;;;;;;;;;;4.50;99.90;;;;;;5075941;28;19926;-86
2022/03/02 02:28:22;;;;;;;;;;;4.50;99.90;;;;;;5076261;28;19945;-86
2022/03/02 02:30:50;;;;;;;;;;;4.40;99.90;;;;;;5093268;28;19924;-86
2022/03/02 02:33:15;;;;;;;;;;;4.40;99.90;;;;;;5076095;28;19964;-87
2022/03/02 02:35:41;;;;;;;;;;;4.30;99.90;;;;;;5094285;28;19919;-86
2022/03/02 02:38:07;;;;;;;;;;;4.30;99.90;;;;;;5097155;28;19966;-86
2022/03/02 02:40:33;;;;;;;;;;;4.20;99.90;;;;;;5080599;28;19926;-86
2022/03/02 02:42:58;;;;;;;;;;;4.20;99.90;;;;;;5080360;28;19924;-86
2022/03/02 02:45:24;;;;;;;;;;;4.10;99.90;;;;;;5096699;28;20015;-86
2022/03/02 02:47:54;;;;;;;54.28;31.45;;;4.10;99.90;;;;;;5088150;28;19967;-86
2022/03/02 02:50:27;;;;;;;54.35;32.63;;;4.00;99.90;;;;;;5078452;28;20092;-86
2022/03/02 02:52:54;;;;;;;54.85;31.95;;;4.00;99.90;;;;;;5078070;28;20059;-87
2022/03/02 02:55:21;;;;;;;54.13;32.88;;;3.90;99.90;;;;;;5091988;28;20032;-87
2022/03/02 02:57:48;;;;;;;57.25;32.97;;;3.90;99.90;;;;;;5091801;28;20051;-86
2022/03/02 03:00:21;;;;;;;52.58;32.83;;;3.80;99.90;;;;;;5092083;28;20074;-87
2022/03/02 03:02:49;;;;;;;54.50;33.00;;;3.80;99.90;;;;;;5074546;28;20513;-86
2022/03/02 03:05:18;;;;;;;56.33;33.13;;;3.80;99.90;;;;;;5058333;28;20040;-87
2022/03/02 03:07:45;;;;;;;55.20;32.30;;;3.70;99.90;;;;;;5058532;28;20433;-87
2022/03/02 03:10:12;;;;;;;53.90;32.17;;;3.70;99.90;;;;;;5074670;28;20052;-86
2022/03/02 03:12:38;;;;;;;55.17;32.28;;;3.70;99.90;;;;;;5074755;28;20040;-87
2022/03/02 03:15:06;;;;;;;53.35;33.10;;;3.70;99.90;;;;;;5057746;28;20050;-86
2022/03/02 03:17:32;;;;;;;56.70;32.53;;;3.60;99.90;;;;;;5057602;28;20048;-86
2022/03/02 03:19:58;;;;;;;56.85;33.78;;;3.60;99.90;;;;;;5075231;28;20043;-86
2022/03/02 03:22:24;;;;;;;54.75;34.30;;;3.60;99.90;;;;;;5079557;28;20050;-87
2022/03/02 03:24:50;;;;;;;54.83;33.70;;;3.60;99.90;;;;;;5079100;28;20040;-86
2022/03/02 03:27:16;;;;;;;58.03;34.83;;;3.50;99.90;;;;;;5095990;28;20469;-86
2022/03/02 03:29:41;;;;;;;55.03;33.42;;;3.50;99.90;;;;;;5094896;28;20146;-87
2022/03/02 03:32:07;;;;;;;58.72;35.10;;;3.50;99.90;;;;;;5094914;28;20035;-86
2022/03/02 03:34:33;;;;;;;58.05;34.97;;;3.50;99.90;;;;;;5094965;28;20135;-86
2022/03/02 03:36:58;;;;;;;55.10;34.45;;;3.40;99.90;;;;;;5094491;28;20066;-87
2022/03/02 03:39:24;;;;;;;56.42;33.53;;;3.40;99.90;;;;;;5095034;28;20047;-86
2022/03/02 03:41:50;;;;;;;58.50;35.20;;;3.40;99.90;;;;;;5078642;28;20047;-86
2022/03/02 03:44:16;;;;;;;53.88;33.15;;;3.40;99.90;;;;;;5079005;28;20043;-86
2022/03/02 03:46:41;;;;;;;55.88;34.42;;;3.40;99.90;;;;;;5094193;28;20179;-86
2022/03/02 03:49:07;;;;;;;53.47;34.20;;;3.30;99.90;;;;;;5094876;28;20051;-87
2022/03/02 03:51:34;;;;;;;53.35;33.67;;;3.30;99.90;;;;;;5094438;28;20035;-87
2022/03/02 03:54:00;;;;;;;54.42;33.17;;;3.30;99.90;;;;;;5094549;28;20052;-86
2022/03/02 03:56:25;;;;;;;;;;;3.30;99.90;;;;;;5091108;28;20049;-86
2022/03/02 03:58:51;;;;;;;;;;;3.20;99.90;;;;;;5090949;28;19924;-86
2022/03/02 04:01:16;;;;;;;55.80;32.45;;;3.20;99.90;;;;;;5091468;28;19920;-86
2022/03/02 04:03:42;;;;;;;55.90;34.22;;;3.20;99.90;;;;;;5091086;28;20514;-86
2022/03/02 04:06:08;;;;;;;54.13;32.50;;;3.20;99.90;;;;;;5090245;28;20044;-86
2022/03/02 04:08:34;;;;;;;53.63;33.15;;;3.20;99.90;;;;;;5091234;28;20167;-86
2022/03/02 04:11:00;;;;;;;56.40;33.40;;;3.20;99.90;;;;;;5073878;28;20096;-86
2022/03/02 04:13:26;;;;;;;55.22;32.30;;;3.10;99.90;;;;;;5090299;28;20040;-87
2022/03/02 04:15:51;;;;;;;55.78;33.35;;;3.10;99.90;;;;;;5090157;28;20043;-87
2022/03/02 04:18:17;;;;;;;54.42;34.00;;;3.10;99.90;;;;;;5073955;28;20044;-86
2022/03/02 04:20:42;;;;;;;58.30;32.53;;;3.10;99.90;;;;;;5090493;28;20032;-86
2022/03/02 04:23:08;;;;;;;48.58;31.88;;;3.10;99.90;;;;;;5073338;28;20574;-86
2022/03/02 04:25:34;;;;;;;52.83;33.15;;;3.10;99.90;;;;;;5073863;28;20044;-86
2022/03/02 04:28:00;;;;;;;55.95;33.88;;;3.10;99.90;;;;;;5072838;28;20169;-86
2022/03/02 04:30:27;;;;;;;53.13;32.72;;;3.10;99.90;;;;;;5037029;28;1110009;-86
2022/03/02 04:32:53;;;;;;;51.83;31.98;;;3.00;99.90;;;;;;5091238;28;20138;-86
2022/03/02 04:35:18;;;;;;;52.35;32.08;;;3.00;99.90;;;;;;5074693;28;20214;-86
2022/03/02 04:37:44;;;;;;;52.65;31.55;;;3.00;99.90;;;;;;5074335;28;20036;-86
2022/03/02 04:40:12;;;;;;;53.92;32.58;;;3.00;99.90;;;;;;5074324;28;20097;-86
2022/03/02 04:42:37;;;;;;;53.58;33.75;;;3.00;99.90;;;;;;5074691;28;20409;-86
2022/03/02 04:45:04;;;;;;;54.90;33.42;;;3.00;99.90;;;;;;5091582;28;20044;-86
2022/03/02 04:47:30;;;;;;;53.15;33.75;;;3.00;99.90;;;;;;5091496;28;20039;-86
2022/03/02 04:49:56;;;;;;;52.67;32.63;;;3.00;99.90;;;;;;5090783;28;20044;-87
2022/03/02 04:52:22;;;;;;;;;;;3.00;99.90;;;;;;5091343;28;20051;-85
2022/03/02 04:55:07;;;;;;;;;;;2.90;99.90;;;;;;5078068;28;19974;-87
2022/03/02 04:57:36;;;;;;;;;;;2.90;99.90;;;;;;5094494;28;19927;-87
2022/03/02 05:00:05;;;;;;;;;;;2.90;99.90;;;;;;5093777;28;19919;-86
2022/03/02 05:02:31;;;;;;;52.17;29.77;;;2.90;99.90;;;;;;5094144;28;19959;-86
2022/03/02 05:04:56;;;;;;;47.67;30.77;;;2.90;99.90;;;;;;5093423;28;20519;-86
2022/03/02 05:07:22;;;;;;;61.65;43.60;;;2.80;99.90;;;;;;5074629;28;20453;-86
2022/03/02 05:09:48;;;;;;;55.35;34.33;;;2.80;99.90;;;;;;5093620;28;20097;-86
2022/03/02 05:12:14;;;;;;;52.38;33.80;;;2.80;99.90;;;;;;5076796;28;20075;-86
2022/03/02 05:14:39;;;;;;;55.60;32.78;;;2.80;99.90;;;;;;5093244;28;20097;-86
2022/03/02 05:17:05;;;;;;;54.85;33.40;;;2.80;99.90;;;;;;5092997;28;20057;-86
2022/03/02 05:19:33;;;;;;;53.50;33.58;;;2.80;99.90;;;;;;5093264;28;20059;-86
2022/03/02 05:21:59;;;;;;;51.42;32.25;;;2.80;99.90;;;;;;5093099;28;20554;-86
2022/03/02 05:24:24;;;;;;;48.00;31.27;;;2.70;99.90;;;;;;5092639;28;20127;-87
2022/03/02 05:26:50;;;;;;;55.20;32.70;;;2.70;99.90;;;;;;5092715;28;20051;-86
2022/03/02 05:29:15;;;;;;;52.67;33.00;;;2.70;99.90;;;;;;5092467;28;20094;-87
2022/03/02 05:31:41;;;;;;;53.72;33.40;;;2.70;99.90;;;;;;5092723;28;20135;-86
2022/03/02 05:34:07;;;;;;;56.22;34.72;;;2.70;99.90;;;;;;5092500;28;20050;-86
2022/03/02 05:36:32;;;;;;;56.97;35.70;;;2.70;99.90;;;;;;5092242;28;20044;-86
2022/03/02 05:38:58;;;;;;;57.53;33.50;;;2.60;99.90;;;;;;5092080;28;20043;-86
2022/03/02 05:41:24;;;;;;;53.65;33.40;;;2.60;99.90;;;;;;5092360;28;20173;-86
2022/03/02 05:43:50;;;;;;;60.15;33.20;;;2.60;99.90;;;;;;5092144;28;20493;-87
2022/03/02 05:46:16;;;;;;;56.45;33.70;;;2.70;99.90;;;;;;5092239;28;20044;-86
2022/03/02 05:48:41;;;;;;;59.35;34.58;;;2.60;99.90;;;;;;5075356;28;20043;-86
2022/03/02 05:51:07;;;;;;;58.20;33.78;;;2.60;99.90;;;;;;5091796;28;20051;-86
2022/03/02 05:53:34;;;;;;;57.72;34.60;;;2.60;99.90;;;;;;5092219;28;20654;-86
2022/03/02 05:55:59;;;;;;;58.58;34.45;;;2.60;99.90;;;;;;5071850;28;20044;-86
2022/03/02 05:58:25;;;;;;;58.63;35.08;;;2.60;99.90;;;;;;5072226;28;20040;-86
2022/03/02 06:00:51;;;;;;;;;;;2.50;99.90;;;;;;5072220;28;20044;-86
2022/03/02 06:03:17;;;;;;;56.00;31.75;;;2.50;99.90;;;;;;5090268;28;19969;-87
2022/03/02 06:05:43;;;;;;;62.47;44.92;;;2.50;99.90;;;;;;5071483;28;20402;-87
2022/03/02 06:08:10;;;;;;;65.05;46.30;;;2.40;99.90;;;;;;5071960;28;20405;-86
2022/03/02 06:10:36;;;;;;;52.70;36.15;;;2.40;99.90;;;;;;5071444;28;20048;-86
2022/03/02 06:13:01;;;;;;;;;;;2.40;99.90;;;;;;5072115;28;20398;-86
2022/03/02 06:15:27;;;;;;;;;;;2.40;99.90;;;;;;5072800;28;19920;-86
2022/03/02 06:17:53;;;;;;;;;;;2.40;99.90;;;;;;5089629;28;19984;-86
2022/03/02 06:20:18;;;;;;;;;;;2.40;99.90;;;;;;5088959;28;19920;-86
2022/03/02 06:22:44;;;;;;;;;;;2.40;99.90;;;;;;5072863;28;19943;-86
2022/03/02 06:25:10;;;;;;;;;;;2.40;99.90;;;;;;5072991;28;20181;-86
2022/03/02 06:27:38;;;;;;;;;;;2.40;99.90;;;;;;5090148;28;19920;-86
2022/03/02 06:30:06;;;;;;;55.60;32.38;;;2.40;99.90;;;;;;5088011;28;19927;-86
2022/03/02 06:32:33;;;;;;;59.22;34.13;;;2.40;99.90;;;;;;5071794;28;20044;-86
2022/03/02 06:34:59;;;;;;;58.85;36.10;;;2.40;99.90;;;;;;5088049;28;20052;-86
2022/03/02 06:37:26;;;;;;;63.35;35.95;;;2.40;99.90;;;;;;5088728;28;20051;-86
2022/03/02 06:39:55;;;;;;;59.80;34.55;;;2.40;99.90;;;;;;5091137;28;20039;-86
2022/03/02 06:42:30;;;;;;;65.22;37.38;;;2.40;99.90;;;;;;5055578;28;20797;-87
2022/03/02 06:45:31;;;;;;;67.80;38.30;;;2.40;99.90;;;;;;5091708;28;20122;-87
2022/03/02 06:48:05;;;;;;;65.32;36.63;;;2.50;99.90;;;;;;5020993;28;20098;-86
2022/03/02 06:50:34;;;;;;;54.50;34.90;;;2.50;99.90;;;;;;5072173;28;20044;-86
2022/03/02 06:53:01;;;;;;;62.83;35.78;;;2.50;99.90;;;;;;5054918;28;20090;-85
2022/03/02 06:55:29;;;;;;;62.92;36.13;;;2.60;99.90;;;;;;5088415;28;20039;-84
2022/03/02 06:57:57;;;;;;;72.80;37.67;;;2.60;99.90;;;;;;5114065;28;20172;-84
2022/03/02 07:00:25;;;;;;;70.68;36.22;;;2.60;99.90;;;;;;5096642;28;20046;-85
2022/03/02 07:03:03;;;;;;;56.75;34.10;;;2.60;99.90;;;;;;5111974;28;20047;-84
2022/03/02 07:05:29;;;;;;;62.20;37.10;;;2.60;99.90;;;;;;5096013;28;20050;-86
2022/03/02 07:07:55;;;;;;;67.07;37.10;;;2.60;99.90;;;;;;5107200;28;20039;-86
2022/03/02 07:10:21;;;;;;;59.15;36.03;;;2.60;99.90;;;;;;5087804;28;20108;-86
2022/03/02 07:12:47;;;;;;;59.47;37.33;;;2.60;99.90;;;;;;5089019;28;20047;-87
2022/03/02 07:15:13;;;;;;;59.78;34.92;;;2.70;99.90;;;;;;5092084;28;20077;-86
2022/03/02 07:17:41;;;;;;;65.30;34.88;;;2.70;99.90;;;;;;5092223;28;20083;-85
2022/03/02 07:20:10;;;;;;;62.47;36.35;;;2.70;99.90;;;;;;5092371;28;20497;-86
2022/03/02 07:22:57;;;;;;;71.35;36.30;;;2.80;99.90;;;;;;5098537;27;20043;-86
2022/03/02 07:25:27;;;;;;;86.90;38.35;;;2.80;99.90;;;;;;5098714;27;20489;-86
2022/03/02 07:27:58;;;;;;;64.32;34.90;;;2.80;99.90;;;;;;5116059;27;20047;-87
2022/03/02 07:30:25;;;;;;;72.93;36.72;;;2.80;99.90;;;;;;5120965;27;20386;-86
2022/03/02 07:32:54;;;;;;;71.72;36.80;;;2.80;99.90;;;;;;5094818;28;20054;-85
2022/03/02 07:35:22;;;;;;;61.20;35.03;;;2.90;99.90;;;;;;5095525;28;20047;-87
2022/03/02 07:37:47;;;;;;;62.35;35.97;;;2.90;99.90;;;;;;5095441;28;20051;-86
2022/03/02 07:40:14;;;;;;;58.45;36.10;;;2.90;99.90;;;;;;5094921;28;20043;-87
2022/03/02 07:42:41;;;;;;;62.10;35.42;;;2.90;99.90;;;;;;5108782;27;20043;-86
2022/03/02 07:45:07;;;;;;;62.90;36.88;;;3.00;99.90;;;;;;5095086;28;20044;-86
2022/03/02 07:47:33;;;;;;;60.35;37.50;;;3.00;99.90;;;;;;5078724;28;20040;-87
2022/03/02 07:49:59;;;;;;;55.90;36.08;;;3.00;99.90;;;;;;5095533;28;20054;-87
2022/03/02 07:52:26;;;;;;;58.13;34.75;;;3.00;99.90;;;;;;5094711;28;20031;-87
2022/03/02 07:55:02;;;;;;;57.30;35.10;;;3.10;99.90;;;;;;5095086;28;20040;-87
2022/03/02 07:57:29;;;;;;;56.92;33.33;;;3.10;99.90;;;;;;5078790;28;20453;-87
2022/03/02 07:59:58;;;;;;;63.65;37.05;;;3.10;99.90;;;;;;5078425;28;20047;-87
2022/03/02 08:02:25;;;;;;;62.30;43.95;;;3.20;99.90;;;;;;5100038;28;20744;-87
2022/03/02 08:04:53;;;;;;;54.83;36.63;;;3.20;99.90;;;;;;5085904;27;20047;-86
2022/03/02 08:07:21;;;;;;;63.35;35.75;;;3.20;99.90;;;;;;5089626;28;20090;-87
2022/03/02 08:09:50;;;;;;;58.38;34.38;;;3.30;99.90;;;;;;5095374;28;20118;-86
2022/03/02 08:12:20;;;;;;;55.72;35.90;;;3.30;99.90;;;;;;5095297;28;20054;-87
2022/03/02 08:14:47;;;;;;;55.75;34.67;;;3.30;99.90;;;;;;5078199;27;20040;-87
2022/03/02 08:17:13;;;;;;;56.42;34.78;;;3.30;99.90;;;;;;5116071;27;20042;-86
2022/03/02 08:19:39;;;;;;;58.53;34.65;;;3.40;99.90;;;;;;5114652;27;20412;-85
2022/03/02 08:22:09;;;;;;;54.78;32.22;;;3.40;99.90;;;;;;5115575;27;20047;-86
2022/03/02 08:24:41;;;;;;;52.67;34.22;;;3.50;99.90;;;;;;5096814;28;20409;-86
2022/03/02 08:27:11;;;;;;;52.20;31.80;;;3.50;99.90;;;;;;5077563;28;20122;-86
2022/03/02 08:29:38;;;;;;;50.40;31.85;;;3.60;99.90;;;;;;5077356;28;20047;-85
2022/03/02 08:32:08;;;;;;;55.47;33.30;;;3.60;99.90;;;;;;5094483;28;20052;-86
2022/03/02 08:34:34;;;;;;;57.25;34.55;;;3.60;99.90;;;;;;5097984;28;20074;-87
2022/03/02 08:37:01;;;;;;;57.65;34.83;;;3.70;99.90;;;;;;5111978;28;20048;-86
2022/03/02 08:39:28;;;;;;;50.97;32.70;;;3.70;99.90;;;;;;5112047;28;20417;-86
2022/03/02 08:41:54;;;;;;;53.78;33.08;;;3.70;99.90;;;;;;5111651;28;20047;-86
2022/03/02 08:44:21;;;;;;;53.58;32.20;;;3.70;99.90;;;;;;5082059;28;20096;-86
2022/03/02 08:46:48;;;;;;;56.78;33.30;;;3.80;99.90;;;;;;5110255;28;20405;-86
2022/03/02 08:49:16;;;;;;;51.35;32.63;;;3.80;99.90;;;;;;5077417;28;20058;-86
2022/03/02 08:51:42;;;;;;;54.78;32.03;;;3.80;99.90;;;;;;5097869;27;20046;-86
2022/03/02 08:54:13;;;;;;;50.63;32.10;;;3.80;99.90;;;;;;5103602;28;20039;-86
2022/03/02 08:56:40;;;;;;;49.65;32.10;;;3.90;99.90;;;;;;5077411;28;20124;-86
2022/03/02 08:59:12;;;;;;;49.95;30.65;;;4.00;99.90;;;;;;5077291;28;20048;-86
2022/03/02 09:01:42;;;;;;;52.78;32.15;;;4.00;99.90;;;;;;5112135;28;20096;-86
2022/03/02 09:04:13;;;;;;;47.95;31.80;;;4.10;99.90;;;;;;5111120;28;20043;-86
2022/03/02 09:06:39;;;;;;;51.45;31.02;;;4.10;99.90;;;;;;5081975;28;20048;-87
2022/03/02 09:09:06;;;;;;;50.67;31.48;;;4.20;99.90;;;;;;5078187;27;20485;-87
2022/03/02 09:11:32;;;;;;;48.00;31.75;;;4.20;99.90;;;;;;5114452;27;20046;-87
2022/03/02 09:14:00;;;;;;;45.67;29.10;;;4.30;99.90;;;;;;5114328;27;20489;-86
2022/03/02 09:16:26;;;;;;;51.33;32.00;;;4.30;99.90;;;;;;5114916;27;20047;-86
2022/03/02 09:18:52;;;;;;;47.25;30.83;;;4.40;99.90;;;;;;5097551;27;20037;-86
2022/03/02 09:21:20;;;;;;;52.03;37.40;;;4.40;99.90;;;;;;5100834;28;20420;-86
2022/03/02 09:23:46;;;;;;;51.83;38.78;;;4.60;99.90;;;;;;5076664;28;20495;-86
2022/03/02 09:26:13;;;;;;;;;;;5.10;99.90;;;;;;5078040;28;20075;-87
2022/03/02 09:28:39;;;;;;;;;;;6.10;99.90;;;;;;5094372;28;19945;-87
2022/03/02 09:31:06;;;;;;;;;;;7.10;99.90;;;;;;5095051;28;19924;-87
2022/03/02 09:33:36;;;;;;;;;;;7.90;99.90;;;;;;5095460;28;19965;-87
2022/03/02 09:36:03;;;;;;;;;;;8.50;99.90;;;;;;5080869;27;19916;-87
2022/03/02 09:38:32;;;;;;;;;;;9.00;99.90;;;;;;5136667;27;19920;-87
2022/03/02 09:41:05;;;;;;;;;;;9.50;99.90;;;;;;5106117;27;20606;-87
2022/03/02 09:43:31;;;;;;;;;;;9.90;99.90;;;;;;5102596;27;19927;-87
2022/03/02 09:46:00;;;;;;;;;;;10.30;99.90;;;;;;5113921;27;19973;-87
2022/03/02 09:48:30;;;;;;;;;;;10.70;99.90;;;;;;5087881;27;20700;-87
2022/03/02 09:51:00;;;;;;;;;;;11.00;99.90;;;;;;5077162;28;19920;-87
2022/03/02 09:53:27;;;;;;;;;;;11.30;99.90;;;;;;5094131;28;19919;-87
2022/03/02 09:55:54;;;;;;;;;;;11.60;99.90;;;;;;5111010;28;19923;-87
2022/03/02 09:58:20;;;;;;;;;;;11.80;99.90;;;;;;5110906;28;19927;-87
2022/03/02 10:00:47;;;;;;;;;;;12.00;99.90;;;;;;5096737;27;19919;-87
2022/03/02 10:03:16;;;;;;;;;;;12.10;99.90;;;;;;5115174;27;19919;-87
2022/03/02 10:05:44;;;;;;;;;;;12.30;98.60;;;;;;5113630;27;19926;-87
2022/03/02 10:08:09;;;;;;;;;;;12.40;98.40;;;;;;5097547;28;19919;-86
2022/03/02 10:10:39;;;;;;;;;;;12.50;97.40;;;;;;5114169;27;19963;-86
2022/03/02 10:13:08;;;;;;;;;;;12.60;98.90;;;;;;5114224;27;19926;-87
2022/03/02 10:15:35;;;;;;;;;;;13.00;97.90;;;;;;5097344;28;20006;-86
2022/03/02 10:18:01;;;;;;;;;;;13.30;95.20;;;;;;5114275;28;20285;-86
2022/03/02 10:20:31;;;;;;;;;;;13.30;94.90;;;;;;5103713;28;19965;-86
2022/03/02 10:22:57;;;;;;;;;;;13.40;94.60;;;;;;5093906;28;20509;-87
2022/03/02 10:25:26;;;;;;;;;;;13.50;92.70;;;;;;5077181;28;19920;-86
2022/03/02 10:28:02;;;;;;;;;;;13.60;93.20;;;;;;5076988;28;20014;-87
2022/03/02 10:30:38;;;;;;;;;;;13.90;92.90;;;;;;5090458;28;19931;-87
2022/03/02 10:33:18;;;;;;;;;;;14.00;90.10;;;;;;5073402;28;20293;-87
2022/03/02 10:35:49;;;;;;;;;;;14.10;90.40;;;;;;5072914;28;19920;-86
2022/03/02 10:38:16;;;;;;;;;;;14.10;86.10;;;;;;5073519;28;19942;-86
2022/03/02 10:40:44;;;;;;;;;;;14.30;84.60;;;;;;5097723;28;19920;-86
2022/03/02 10:43:10;;;;;;;;;;;14.30;82.30;;;;;;5091751;28;19924;-85
2022/03/02 10:45:39;;;;;;;;;;;14.50;86.40;;;;;;5089454;28;19977;-87
2022/03/02 10:48:12;;;;;;;;;;;14.50;84.40;;;;;;5090067;28;19920;-87
2022/03/02 10:50:39;;;;;;;;;;;14.70;85.40;;;;;;5089975;28;19931;-87
2022/03/02 10:53:07;;;;;;;;;;;15.00;84.50;;;;;;5073485;28;19924;-87
2022/03/02 10:55:33;;;;;;;;;;;15.30;84.50;;;;;;5069725;28;19970;-87
2022/03/02 10:58:01;;;;;;;;;;;15.70;79.80;;;;;;5060762;28;19963;-87
2022/03/02 11:00:27;;;;;;;;;;;15.70;79.00;;;;;;5093981;28;19924;-87
2022/03/02 11:02:57;;;;;;;;;;;15.70;77.70;;;;;;5094706;28;19920;-87
2022/03/02 11:05:27;;;;;;;;;;;15.70;77.20;;;;;;5093577;28;19963;-87
2022/03/02 11:07:52;;;;;;;;;;;15.80;75.70;;;;;;5094206;28;20298;-87
2022/03/02 11:10:20;;;;;;;;;;;16.00;76.20;;;;;;5076876;28;19920;-86
2022/03/02 11:12:46;;;;;;;;;;;16.20;75.70;;;;;;5077026;28;19920;-86
2022/03/02 11:15:14;;;;;;;35.75;24.63;;;16.40;72.00;;;;;;5097364;28;19953;-85
2022/03/02 11:17:51;;;;;;;29.98;26.70;;;16.40;73.90;;;;;;5058048;28;20417;-87
2022/03/02 11:20:17;;;;;;;34.55;26.52;;;16.60;72.80;;;;;;5091419;28;20451;-86
2022/03/02 11:23:08;;;;;;;33.85;26.70;;;16.70;72.60;;;;;;5091433;28;20414;-86
2022/03/02 11:25:43;;;;;;;29.52;26.42;;;16.90;72.70;;;;;;5074724;28;20452;-86
2022/03/02 11:28:13;;;;;;;31.70;26.15;;;17.20;71.90;;;;;;5071387;28;20510;-87
2022/03/02 11:30:39;;;;;;;29.02;25.92;;;17.40;67.90;;;;;;5055115;28;21323;-87
2022/03/02 11:33:07;;;;;;;27.83;23.83;;;17.50;67.00;;;;;;5101777;28;20432;-87
2022/03/02 11:35:37;;;;;;;30.27;24.27;;;17.40;64.70;;;;;;5075007;28;20420;-87
2022/03/02 11:38:05;;;;;;;25.60;21.98;;;17.30;62.30;;;;;;5072911;28;20766;-87
2022/03/02 11:40:43;;;;;;;22.90;20.55;;;17.10;59.40;;;;;;5098500;28;20413;-87
2022/03/02 11:43:21;;;;;;;22.65;20.25;;;17.10;57.40;;;;;;5099423;28;20402;-87
2022/03/02 11:45:49;;;;;;;22.80;20.07;;;17.00;58.00;;;;;;5105877;28;20462;-86
2022/03/02 11:48:15;;;;;;;22.52;19.70;;;17.10;58.80;;;;;;5101267;28;20475;-87
2022/03/02 11:51:00;;;;;;;23.23;20.40;;;17.30;57.20;;;;;;5090565;28;21211;-87
2022/03/02 11:53:35;;;;;;;24.20;19.80;;;17.30;57.40;;;;;;5089918;28;20417;-87
2022/03/02 11:56:02;;;;;;;21.40;19.10;;;17.40;57.00;;;;;;5077292;28;20409;-87
2022/03/02 11:58:52;;;;;;;21.75;19.13;;;17.60;56.90;;;;;;5090732;28;20874;-87
2022/03/02 12:01:18;;;;;;;21.08;18.67;;;17.90;55.10;;;;;;5090883;28;20417;-87
2022/03/02 12:04:01;;;;;;;20.52;18.40;;;18.00;54.80;;;;;;5090416;28;20406;-86
2022/03/02 12:06:30;;;;;;;22.40;19.63;;;18.10;51.80;;;;;;5053425;28;20426;-86
2022/03/02 12:08:57;;;;;;;21.63;19.33;;;18.10;53.90;;;;;;5086788;28;20411;-86
2022/03/02 12:11:31;;;;;;;23.00;19.60;;;18.40;53.60;;;;;;5068891;28;20931;-86
2022/03/02 12:14:05;;;;;;;23.30;20.80;;;18.70;55.90;;;;;;5089879;28;20408;-86
2022/03/02 12:16:41;;;;;;;23.15;20.75;;;18.70;51.50;;;;;;5089196;28;20425;-87
2022/03/02 12:19:25;;;;;;;23.60;20.60;;;18.60;53.10;;;;;;5072167;28;20942;-84
2022/03/02 12:22:00;;;;;;;24.00;20.70;;;18.50;52.10;;;;;;5073362;28;20908;-86
2022/03/02 12:24:32;;;;;;;22.83;20.42;;;18.40;52.20;;;;;;5089726;28;20429;-86
2022/03/02 12:27:05;;;;;;;22.67;20.27;;;18.50;51.90;;;;;;5090107;28;20406;-86
2022/03/02 12:29:33;;;;;;;23.77;21.25;;;18.50;51.40;;;;;;5072278;28;20437;-86
2022/03/02 12:32:15;;;;;;;23.85;21.10;;;18.60;52.50;;;;;;5089878;28;20418;-86
2022/03/02 12:34:50;;;;;;;27.95;21.63;;;18.60;50.70;;;;;;5090180;28;20768;-85
2022/03/02 12:37:18;;;;;;;37.13;22.10;;;18.70;53.00;;;;;;5073736;28;20807;-85
2022/03/02 12:39:44;;;;;;;28.35;20.42;;;18.90;51.30;;;;;;5072606;28;20439;-86
2022/03/02 12:42:11;;;;;;;22.92;20.40;;;18.90;50.00;;;;;;5090115;28;20402;-85
2022/03/02 12:44:39;;;;;;;49.03;23.25;;;18.80;48.70;;;;;;5072543;28;20936;-86
2022/03/02 12:47:09;;;;;;;36.53;22.20;;;18.80;51.50;;;;;;5072306;28;20511;-86
2022/03/02 12:49:39;;;;;;;35.38;23.17;;;19.00;51.00;;;;;;5087122;28;20445;-86
2022/03/02 12:52:05;;;;;;;41.13;23.27;;;19.20;52.00;;;;;;5090038;28;20410;-86
2022/03/02 12:54:34;;;;;;;30.60;23.00;;;19.50;51.60;;;;;;5089411;28;20478;-86
2022/03/02 12:57:08;;;;;;;28.25;23.42;;;19.70;52.00;;;;;;5100936;28;20475;-85
2022/03/02 12:59:34;;;;;;;29.83;22.23;;;19.80;51.00;;;;;;5100526;28;20420;-86
2022/03/02 13:02:12;;;;;;;24.73;22.13;;;19.90;49.60;;;;;;5082882;28;20395;-85